createdAt,value
2018-06-25T09:24:42.043Z,54.6
2018-06-25T09:26:52.795Z,53.1
2018-06-25T09:32:04.813Z,51.6
2018-06-25T09:37:16.892Z,51.3
2018-06-25T09:42:29.016Z,51.4
2018-06-25T09:47:41.056Z,50.6
2018-06-25T09:52:53.135Z,50.1
2018-06-25T09:58:07.022Z,48.6
2018-06-25T10:03:17.661Z,50.3
2018-06-25T10:08:29.335Z,50.1
2018-06-25T10:13:41.435Z,48.7
2018-06-25T10:18:53.578Z,48.8
2018-06-25T10:24:05.598Z,49.7
2018-06-25T10:29:17.650Z,51
2018-06-25T10:34:29.679Z,50.6
2018-06-25T10:39:41.776Z,48.4
2018-06-25T10:44:53.987Z,50.1
2018-06-25T10:50:05.917Z,50.9
2018-06-25T10:55:17.980Z,49.1
2018-06-25T11:00:32.329Z,46.5
2018-06-25T11:05:42.126Z,44.7
2018-06-25T11:10:54.281Z,42.1
2018-06-25T11:16:06.398Z,43.5
2018-06-25T11:21:18.443Z,45.8
2018-06-25T11:26:30.757Z,45.1
2018-06-25T11:31:42.616Z,42.2
2018-06-25T11:36:54.644Z,38.6
2018-06-25T11:42:06.714Z,35.4
2018-06-25T11:47:18.709Z,41.6
2018-06-25T11:52:30.892Z,43.5
2018-06-25T11:57:42.854Z,42.4
2018-06-25T12:02:55.010Z,35.4
2018-06-25T12:08:07.004Z,32.3
2018-06-25T12:13:19.220Z,35
2018-06-25T12:18:31.395Z,37.7
2018-06-25T12:23:43.443Z,40.9
2018-06-25T12:28:55.385Z,33
2018-06-25T12:34:07.402Z,32.9
2018-06-25T12:39:19.454Z,32.6
2018-06-25T12:44:31.571Z,35.4
2018-06-25T12:49:43.673Z,37.1
2018-06-25T12:54:55.693Z,37.7
2018-06-25T13:00:07.744Z,35.7
2018-06-25T13:05:19.869Z,35.2
2018-06-25T13:10:32.010Z,36.9
2018-06-25T13:15:43.973Z,30
2018-06-25T13:20:56.069Z,29.1
2018-06-25T13:26:08.395Z,28.7
2018-06-25T13:31:20.545Z,30.4
2018-06-25T13:36:32.356Z,28.5
2018-06-25T13:41:44.403Z,29.2
2018-06-25T13:46:56.471Z,31.7
2018-06-25T13:52:08.541Z,31.5
2018-06-25T13:57:20.554Z,30.2
2018-06-25T14:02:32.887Z,34.4
2018-06-25T14:07:45.236Z,35.3
2018-06-25T14:12:57.025Z,36.4
2018-06-25T14:18:08.939Z,37.7
2018-06-25T14:23:20.919Z,37.5
2018-06-25T14:28:33.118Z,37.6
2018-06-25T14:34:09.443Z,37.7
2018-06-25T14:40:40.347Z,36.3
2018-06-25T14:46:58.154Z,32.5
2018-06-25T14:53:28.303Z,37.3
